Time;durP1;ratioP1;P1;durP2;ratioP2;P2;SDS_P1;SDS_P2;PMS_P1;PMS_P2;Temp;Humidity;BMP_temperature;BMP_pressure;BME280_temperature;BME280_humidity;BME280_pressure;Samples;Min_cycle;Max_cycle;Signal;HPM_P1;HPM_P2
2021/04/04 00:01:20;;;;;;;9.07;4.57;;;7.10;99.90;;;;;;5060230;28;20655;-38
2021/04/04 00:03:47;;;;;;;11.87;4.87;;;7.30;99.90;;;;;;5058060;28;20213;-37
2021/04/04 00:06:13;;;;;;;9.93;4.63;;;7.10;99.90;;;;;;5067184;28;20454;-38
2021/04/04 00:08:38;;;;;;;14.17;4.60;;;7.30;99.90;;;;;;5067081;28;20937;-38
2021/04/04 00:11:05;;;;;;;9.60;4.73;;;7.30;99.90;;;;;;5066612;28;20549;-38
2021/04/04 00:13:31;;;;;;;11.33;4.60;;;7.60;99.90;;;;;;5066200;28;20182;-38
2021/04/04 00:15:57;;;;;;;9.97;4.90;;;7.30;99.90;;;;;;5063332;28;20470;-38
2021/04/04 00:18:23;;;;;;;12.23;5.10;;;7.30;99.90;;;;;;5057193;28;20416;-38
2021/04/04 00:20:48;;;;;;;10.77;5.70;;;7.30;99.90;;;;;;5066148;28;20415;-38
2021/04/04 00:23:14;;;;;;;8.00;4.30;;;7.30;99.90;;;;;;5066689;28;20246;-38
2021/04/04 00:25:40;;;;;;;12.93;5.00;;;7.20;99.90;;;;;;5066648;28;20640;-38
2021/04/04 00:28:06;;;;;;;12.73;4.87;;;7.40;99.90;;;;;;5066687;28;20639;-38
2021/04/04 00:30:32;;;;;;;11.00;4.50;;;7.30;99.90;;;;;;5065813;28;20690;-38
2021/04/04 00:32:57;;;;;;;12.47;4.40;;;7.20;99.90;;;;;;5060195;28;20439;-39
2021/04/04 00:35:23;;;;;;;14.37;6.33;;;7.40;99.90;;;;;;5066457;28;20515;-37
2021/04/04 00:37:53;;;;;;;8.63;4.60;;;7.30;99.90;;;;;;5066601;28;20216;-37
2021/04/04 00:40:22;;;;;;;10.27;5.07;;;7.10;99.90;;;;;;5065866;28;20449;-38
2021/04/04 00:42:47;;;;;;;10.20;5.13;;;7.20;99.90;;;;;;5053409;28;20412;-38
2021/04/04 00:45:19;;;;;;;8.43;4.83;;;7.50;99.90;;;;;;5066121;28;20415;-38
2021/04/04 00:47:46;;;;;;;14.13;4.70;;;7.40;99.90;;;;;;5051984;28;20691;-38
2021/04/04 00:50:12;;;;;;;12.43;4.80;;;7.40;99.90;;;;;;5065520;28;20419;-38
2021/04/04 00:52:39;;;;;;;16.53;5.83;;;7.60;99.90;;;;;;5066175;28;20511;-37
2021/04/04 00:55:07;;;;;;;16.83;5.40;;;7.40;99.90;;;;;;5066285;28;20455;-38
2021/04/04 00:57:33;;;;;;;14.90;6.00;;;7.40;99.90;;;;;;5066011;28;20522;-38
2021/04/04 01:00:00;;;;;;;9.27;4.43;;;7.60;99.90;;;;;;5065413;28;20840;-37
2021/04/04 01:02:26;;;;;;;12.30;5.70;;;7.40;99.90;;;;;;5056946;28;20531;-39
2021/04/04 01:04:53;;;;;;;11.70;4.77;;;7.40;99.90;;;;;;5064587;28;20534;-38
2021/04/04 01:07:18;;;;;;;10.07;3.83;;;7.40;99.90;;;;;;5066008;28;20208;-38
2021/04/04 01:09:44;;;;;;;14.70;6.40;;;7.40;99.90;;;;;;5065263;28;20455;-39
2021/04/04 01:12:28;;;;;;;15.17;4.47;;;7.40;99.90;;;;;;5065724;28;20692;-38
2021/04/04 01:15:12;;;;;;;16.23;4.67;;;7.30;99.90;;;;;;5066381;28;20212;-38
2021/04/04 01:17:38;;;;;;;11.17;4.70;;;7.40;99.90;;;;;;5057101;28;20439;-38
2021/04/04 01:20:10;;;;;;;11.53;4.23;;;7.40;99.90;;;;;;5065307;28;20415;-38
2021/04/04 01:22:56;;;;;;;8.03;4.00;;;7.40;99.90;;;;;;5065889;28;20411;-38
2021/04/04 01:25:35;;;;;;;15.03;5.27;;;7.40;99.90;;;;;;5065462;28;20411;-38
2021/04/04 01:28:02;;;;;;;12.03;5.40;;;7.50;99.90;;;;;;5066012;28;20447;-38
2021/04/04 01:30:32;;;;;;;11.93;4.80;;;7.30;99.90;;;;;;5065125;28;20472;-37
2021/04/04 01:33:00;;;;;;;12.93;4.20;;;7.40;99.90;;;;;;5059520;28;20718;-38
2021/04/04 01:35:30;;;;;;;9.13;4.63;;;7.60;99.90;;;;;;5058728;28;20525;-38
2021/04/04 01:37:59;;;;;;;13.00;4.30;;;7.60;99.90;;;;;;5065645;28;20423;-38
2021/04/04 01:40:26;;;;;;;8.83;4.20;;;7.40;99.90;;;;;;5064900;28;20416;-38
2021/04/04 01:42:53;;;;;;;10.60;4.50;;;7.60;99.90;;;;;;5064089;28;20948;-38
2021/04/04 01:45:21;;;;;;;11.40;4.60;;;7.90;99.90;;;;;;5065177;28;20630;-38
2021/04/04 01:47:47;;;;;;;9.60;3.90;;;7.80;99.90;;;;;;5058642;28;20463;-38
2021/04/04 01:50:14;;;;;;;11.00;4.70;;;7.70;99.90;;;;;;5059754;28;20419;-38
2021/04/04 01:52:40;;;;;;;12.73;5.47;;;7.80;99.90;;;;;;5064291;28;20577;-38
2021/04/04 01:55:08;;;;;;;11.93;4.90;;;7.40;99.90;;;;;;5065573;28;20470;-38
2021/04/04 01:57:34;;;;;;;10.20;5.03;;;7.40;99.90;;;;;;5057329;28;20417;-38
2021/04/04 02:00:06;;;;;;;10.17;4.23;;;7.30;99.90;;;;;;5044980;28;20425;-38
2021/04/04 02:02:32;;;;;;;12.50;5.60;;;7.50;99.90;;;;;;5044653;28;20507;-38
2021/04/04 02:04:59;;;;;;;13.90;5.27;;;7.50;99.90;;;;;;5053421;28;20431;-38
2021/04/04 02:07:25;;;;;;;14.10;5.40;;;7.60;99.90;;;;;;5048990;28;20840;-37
2021/04/04 02:09:52;;;;;;;11.07;4.87;;;7.30;99.90;;;;;;5044840;28;20436;-38
2021/04/04 02:12:19;;;;;;;9.87;4.83;;;7.40;99.90;;;;;;5050540;28;20636;-38
2021/04/04 02:14:47;;;;;;;12.90;4.60;;;7.60;99.90;;;;;;5044172;28;20460;-38
2021/04/04 02:17:13;;;;;;;13.07;4.90;;;7.30;99.90;;;;;;5045165;28;20425;-41
2021/04/04 02:19:39;;;;;;;12.20;5.10;;;7.50;99.90;;;;;;5055936;28;20883;-38
2021/04/04 02:22:05;;;;;;;18.17;5.90;;;7.00;99.90;;;;;;5042849;28;20411;-37
2021/04/04 02:24:33;;;;;;;13.17;5.50;;;7.10;99.90;;;;;;5048221;28;21256;-38
2021/04/04 02:26:59;;;;;;;12.67;6.80;;;7.10;99.90;;;;;;5046151;28;20667;-38
2021/04/04 02:29:25;;;;;;;16.87;6.77;;;7.10;99.90;;;;;;5044492;28;20470;-38
2021/04/04 02:32:00;;;;;;;11.83;6.77;;;7.00;99.90;;;;;;5045341;28;20948;-38
2021/04/04 02:34:36;;;;;;;13.27;6.20;;;7.30;99.90;;;;;;5047982;28;21013;-37
2021/04/04 02:37:08;;;;;;;10.60;7.27;;;7.20;99.90;;;;;;5053901;28;20965;-37
2021/04/04 02:39:40;;;;;;;9.53;5.73;;;7.00;99.90;;;;;;5055341;28;20453;-37
2021/04/04 02:42:07;;;;;;;14.90;6.57;;;7.00;99.90;;;;;;5066468;28;20711;-39
2021/04/04 02:44:35;;;;;;;11.67;5.87;;;7.10;99.90;;;;;;5048567;28;20436;-37
2021/04/04 02:47:07;;;;;;;13.30;6.50;;;7.10;99.90;;;;;;5050039;28;20432;-38
2021/04/04 02:49:35;;;;;;;15.63;6.17;;;7.20;99.90;;;;;;5060473;28;20829;-38
2021/04/04 02:52:04;;;;;;;12.50;5.90;;;7.40;99.90;;;;;;5061465;28;20656;-37
2021/04/04 02:54:31;;;;;;;14.10;6.30;;;7.30;99.90;;;;;;5048246;28;20474;-38
2021/04/04 02:56:58;;;;;;;11.03;6.23;;;7.00;99.90;;;;;;5054111;28;20507;-38
2021/04/04 02:59:43;;;;;;;16.00;5.57;;;7.20;99.90;;;;;;5047903;28;20425;-37
2021/04/04 03:02:14;;;;;;;15.47;6.40;;;7.20;99.90;;;;;;5048807;28;20752;-38
2021/04/04 03:04:41;;;;;;;10.43;5.37;;;7.30;99.90;;;;;;5056671;28;20439;-38
2021/04/04 03:07:11;;;;;;;10.23;5.57;;;7.10;99.90;;;;;;5056757;28;20431;-38
2021/04/04 03:09:40;;;;;;;14.70;6.23;;;6.90;99.90;;;;;;5054304;28;20527;-38
2021/04/04 03:12:07;;;;;;;12.70;6.03;;;6.90;99.90;;;;;;5050145;28;20430;-38
2021/04/04 03:14:35;;;;;;;14.03;6.17;;;7.00;99.90;;;;;;5048195;28;20464;-38
2021/04/04 03:17:02;;;;;;;12.93;5.80;;;7.00;99.90;;;;;;5048605;28;20412;-38
2021/04/04 03:19:29;;;;;;;18.60;5.90;;;6.90;99.90;;;;;;5053876;28;20494;-37
2021/04/04 03:21:57;;;;;;;17.73;7.53;;;7.00;99.90;;;;;;5053817;28;20780;-38
2021/04/04 03:24:25;;;;;;;16.63;6.20;;;6.90;99.90;;;;;;5047869;28;20440;-37
2021/04/04 03:26:52;;;;;;;21.37;6.83;;;6.80;99.90;;;;;;5054126;28;20419;-38
2021/04/04 03:29:19;;;;;;;8.77;5.93;;;7.00;99.90;;;;;;5052070;28;20420;-38
2021/04/04 03:31:45;;;;;;;11.10;5.60;;;7.10;99.90;;;;;;5047715;28;20516;-38
2021/04/04 03:34:11;;;;;;;16.13;7.37;;;7.10;99.90;;;;;;5048240;28;20843;-38
2021/04/04 03:36:38;;;;;;;14.50;6.20;;;6.90;99.90;;;;;;5058109;28;20824;-38
2021/04/04 03:39:04;;;;;;;14.47;6.10;;;7.30;99.90;;;;;;5049723;28;20460;-38
2021/04/04 03:41:33;;;;;;;12.60;5.53;;;7.10;99.90;;;;;;5048688;28;20471;-37
2021/04/04 03:44:00;;;;;;;12.53;6.20;;;7.00;99.90;;;;;;5051674;28;20447;-38
2021/04/04 03:46:34;;;;;;;15.80;6.37;;;7.00;99.90;;;;;;5046139;28;20423;-38
2021/04/04 03:49:01;;;;;;;16.33;6.40;;;7.00;99.90;;;;;;5061576;28;20567;-38
2021/04/04 03:51:28;;;;;;;18.03;6.53;;;7.10;99.90;;;;;;5058295;28;20559;-38
2021/04/04 03:53:56;;;;;;;11.43;6.40;;;7.00;99.90;;;;;;5058983;28;20499;-37
2021/04/04 03:56:32;;;;;;;14.03;6.80;;;7.00;99.90;;;;;;5047635;28;20424;-38
2021/04/04 03:59:03;;;;;;;20.13;6.80;;;7.20;99.90;;;;;;5066034;28;20781;-37
2021/04/04 04:01:32;;;;;;;12.10;6.33;;;7.00;99.90;;;;;;5067395;28;20512;-38
2021/04/04 04:03:59;;;;;;;16.40;5.67;;;7.00;99.90;;;;;;5062577;28;20447;-37
2021/04/04 04:06:26;;;;;;;10.87;5.83;;;6.90;99.90;;;;;;5058679;28;20422;-37
2021/04/04 04:08:52;;;;;;;9.77;5.37;;;7.00;99.90;;;;;;5052814;28;20459;-38
2021/04/04 04:11:18;;;;;;;11.00;6.13;;;6.90;99.90;;;;;;5045108;28;20424;-38
2021/04/04 04:13:44;;;;;;;15.10;6.50;;;7.00;99.90;;;;;;5056963;28;20833;-38
2021/04/04 04:16:11;;;;;;;17.37;5.97;;;7.00;99.90;;;;;;5046958;28;20459;-38
2021/04/04 04:18:44;;;;;;;13.20;6.07;;;6.90;99.90;;;;;;5046588;28;20440;-38
2021/04/04 04:21:14;;;;;;;15.00;5.60;;;6.90;99.90;;;;;;5054126;28;20507;-37
2021/04/04 04:23:41;;;;;;;14.87;5.53;;;6.90;99.90;;;;;;5053028;28;20428;-38
2021/04/04 04:26:13;;;;;;;16.43;5.47;;;7.10;99.90;;;;;;5046419;28;20417;-38
2021/04/04 04:28:40;;;;;;;14.53;5.73;;;7.00;99.90;;;;;;5053420;28;20427;-38
2021/04/04 04:31:12;;;;;;;15.60;6.83;;;7.00;99.90;;;;;;5046194;28;20603;-38
2021/04/04 04:33:40;;;;;;;9.00;4.43;;;7.00;99.90;;;;;;5047439;28;20534;-38
2021/04/04 04:36:07;;;;;;;12.80;5.33;;;7.00;99.90;;;;;;5063514;28;20516;-38
2021/04/04 04:38:32;;;;;;;14.00;5.67;;;7.00;99.90;;;;;;5062466;28;20420;-37
2021/04/04 04:40:59;;;;;;;10.07;4.93;;;7.00;99.90;;;;;;5046483;28;20420;-38
2021/04/04 04:43:27;;;;;;;10.63;5.03;;;7.10;99.90;;;;;;5046332;28;20922;-38
2021/04/04 04:45:53;;;;;;;14.27;5.00;;;7.10;99.90;;;;;;5046194;28;20428;-37
2021/04/04 04:48:19;;;;;;;10.73;4.30;;;7.20;99.90;;;;;;5058578;28;20423;-38
2021/04/04 04:50:45;;;;;;;11.37;5.80;;;7.00;99.90;;;;;;5051914;28;20431;-37
2021/04/04 04:53:11;;;;;;;14.07;7.40;;;6.90;99.90;;;;;;5058429;28;20318;-38
2021/04/04 04:55:40;;;;;;;14.97;8.73;;;7.20;99.90;;;;;;5046563;28;20988;-38
2021/04/04 04:58:07;;;;;;;22.93;8.63;;;7.10;99.90;;;;;;5055342;28;20185;-38
2021/04/04 05:00:35;;;;;;;12.27;6.87;;;7.30;99.90;;;;;;5046366;28;20492;-38
2021/04/04 05:03:01;;;;;;;13.43;6.80;;;7.10;99.80;;;;;;5046558;28;20840;-38
2021/04/04 05:05:27;;;;;;;15.30;5.90;;;7.00;99.50;;;;;;5044779;28;20466;-37
2021/04/04 05:07:53;;;;;;;10.00;4.90;;;7.10;99.90;;;;;;5056938;28;20488;-38
2021/04/04 05:10:21;;;;;;;13.40;5.73;;;7.10;99.90;;;;;;5045941;28;20696;-37
2021/04/04 05:12:57;;;;;;;13.40;5.00;;;7.20;99.80;;;;;;5051309;28;20426;-38
2021/04/04 05:15:26;;;;;;;9.80;5.57;;;7.20;99.40;;;;;;5046118;28;20460;-38
2021/04/04 05:17:53;;;;;;;10.60;5.40;;;7.20;99.60;;;;;;5045792;28;20416;-38
2021/04/04 05:20:19;;;;;;;13.03;5.30;;;7.20;99.70;;;;;;5046667;28;20436;-38
2021/04/04 05:22:45;;;;;;;9.13;4.90;;;7.20;99.90;;;;;;5056976;28;20488;-37
2021/04/04 05:25:11;;;;;;;9.97;4.83;;;7.10;99.80;;;;;;5054632;28;20485;-38
2021/04/04 05:27:37;;;;;;;14.83;4.73;;;7.20;99.60;;;;;;5047415;28;20798;-37
2021/04/04 05:30:10;;;;;;;12.43;4.60;;;7.10;99.40;;;;;;5044941;28;20439;-38
2021/04/04 05:32:46;;;;;;;11.37;4.67;;;7.30;99.40;;;;;;5045657;28;20309;-38
2021/04/04 05:35:17;;;;;;;12.70;4.37;;;7.30;99.60;;;;;;5051117;28;20860;-38
2021/04/04 05:37:43;;;;;;;8.10;4.50;;;7.30;99.90;;;;;;5057217;28;20428;-37
2021/04/04 05:40:20;;;;;;;16.63;8.83;;;7.10;99.70;;;;;;5048494;28;20443;-38
2021/04/04 05:42:55;;;;;;;18.03;9.33;;;7.10;99.70;;;;;;5047378;28;20432;-38
2021/04/04 05:45:28;;;;;;;15.47;8.60;;;7.30;99.50;;;;;;5051297;28;20956;-38
2021/04/04 05:48:06;;;;;;;14.73;7.00;;;7.10;99.10;;;;;;5054481;28;20435;-37
2021/04/04 05:50:46;;;;;;;11.43;7.27;;;7.30;98.80;;;;;;5060331;28;20427;-38
2021/04/04 05:53:19;;;;;;;14.93;7.53;;;7.20;98.90;;;;;;5051945;28;20479;-38
2021/04/04 05:55:54;;;;;;;16.57;7.10;;;7.30;99.00;;;;;;5045137;28;20717;-38
2021/04/04 05:58:26;;;;;;;12.90;5.93;;;7.20;99.10;;;;;;5051312;28;20415;-38
2021/04/04 06:00:57;;;;;;;10.70;6.17;;;7.20;99.20;;;;;;5044773;28;20489;-38
2021/04/04 06:03:52;;;;;;;14.10;5.90;;;7.20;99.20;;;;;;5045668;28;20926;-37
2021/04/04 06:06:33;;;;;;;14.30;6.20;;;7.10;99.40;;;;;;5053294;28;20462;-38
2021/04/04 06:09:19;;;;;;;14.00;5.90;;;7.00;99.20;;;;;;5061126;28;20427;-38
2021/04/04 06:12:13;;;;;;;14.20;6.30;;;7.10;99.30;;;;;;5048229;28;20435;-37
2021/04/04 06:15:13;;;;;;;14.10;6.40;;;7.00;99.20;;;;;;5051021;28;20549;-38
2021/04/04 06:17:54;;;;;;;14.93;6.07;;;7.00;99.20;;;;;;5048007;28;21236;-38
2021/04/04 06:20:40;;;;;;;15.97;7.57;;;7.00;99.70;;;;;;5050458;28;20475;-38
2021/04/04 06:23:31;;;;;;;12.07;6.53;;;7.20;99.90;;;;;;5058121;28;20420;-38
2021/04/04 06:26:08;;;;;;;10.17;5.90;;;7.20;99.10;;;;;;5050796;28;20446;-38
2021/04/04 06:28:59;;;;;;;17.23;7.43;;;7.30;98.90;;;;;;5069119;28;20963;-38
2021/04/04 06:31:44;;;;;;;30.53;6.60;;;7.20;99.00;;;;;;5049589;28;20424;-37
2021/04/04 06:34:31;;;;;;;14.90;7.20;;;7.20;99.20;;;;;;5051631;28;20474;-38
2021/04/04 06:37:09;;;;;;;13.20;6.90;;;7.10;99.00;;;;;;5063990;28;20740;-38
2021/04/04 06:39:46;;;;;;;14.93;8.77;;;7.20;99.30;;;;;;5055349;28;20442;-40
2021/04/04 06:42:22;;;;;;;12.40;7.97;;;7.10;99.70;;;;;;5048041;28;20550;-38
2021/04/04 06:45:17;;;;;;;16.63;8.57;;;7.20;99.40;;;;;;5056111;28;20419;-38
2021/04/04 06:48:04;;;;;;;13.03;8.37;;;7.20;99.50;;;;;;5048914;28;20424;-39
2021/04/04 06:50:36;;;;;;;14.43;8.00;;;7.00;99.40;;;;;;5050817;28;20887;-39
2021/04/04 06:53:30;;;;;;;13.57;8.60;;;7.20;99.50;;;;;;5054599;28;20984;-38
2021/04/04 06:56:14;;;;;;;18.07;12.30;;;7.30;99.60;;;;;;5059119;28;20464;-38
2021/04/04 06:59:07;;;;;;;17.63;11.80;;;7.30;99.30;;;;;;5051292;28;20426;-39
2021/04/04 07:02:05;;;;;;;16.70;9.67;;;7.30;99.40;;;;;;5061032;28;21154;-38
2021/04/04 07:04:49;;;;;;;14.87;8.20;;;7.30;99.60;;;;;;5053912;28;20427;-38
2021/04/04 07:07:15;;;;;;;23.03;11.77;;;7.30;99.50;;;;;;5060035;28;20443;-38
2021/04/04 07:10:18;;;;;;;21.83;11.57;;;7.40;99.60;;;;;;5054918;28;20558;-38
2021/04/04 07:13:17;;;;;;;15.60;10.20;;;7.40;99.30;;;;;;5047594;28;20235;-38
2021/04/04 07:16:17;;;;;;;14.07;9.10;;;7.10;99.00;;;;;;5047628;28;20475;-38
2021/04/04 07:19:02;;;;;;;11.07;7.90;;;7.30;99.30;;;;;;5052107;28;21137;-38
2021/04/04 07:21:49;;;;;;;16.00;8.30;;;7.40;99.20;;;;;;5052449;28;20431;-38
2021/04/04 07:24:30;;;;;;;9.27;7.00;;;7.40;99.40;;;;;;5050156;28;20565;-38
2021/04/04 07:27:13;;;;;;;10.13;7.37;;;7.20;99.30;;;;;;5057403;28;20509;-40
2021/04/04 07:30:05;;;;;;;11.33;7.20;;;7.30;99.50;;;;;;5054543;28;20731;-38
2021/04/04 07:32:48;;;;;;;10.20;5.47;;;7.10;99.90;;;;;;5051845;28;20423;-38
2021/04/04 07:35:34;;;;;;;14.90;5.80;;;7.50;99.90;;;;;;5049542;28;20961;-38
2021/04/04 07:38:31;;;;;;;13.13;5.47;;;7.60;99.90;;;;;;5064184;28;20434;-38
2021/04/04 07:41:14;;;;;;;11.10;4.87;;;7.40;99.90;;;;;;5059722;28;20942;-38
2021/04/04 07:44:04;;;;;;;9.87;4.93;;;7.50;99.90;;;;;;5046905;28;20496;-38
2021/04/04 07:46:33;;;;;;;7.83;4.33;;;7.50;99.90;;;;;;5059496;28;20488;-38
2021/04/04 07:49:12;;;;;;;4.90;3.90;;;7.50;99.90;;;;;;5051578;28;20408;-38
2021/04/04 07:51:40;;;;;;;5.47;3.97;;;7.40;99.90;;;;;;5055994;28;20436;-37
2021/04/04 07:54:18;;;;;;;10.70;4.60;;;7.40;99.90;;;;;;5062241;28;20506;-38
2021/04/04 07:56:55;;;;;;;10.40;4.33;;;7.60;99.90;;;;;;5060706;28;20448;-38
2021/04/04 07:59:45;;;;;;;12.00;6.70;;;7.40;99.90;;;;;;5051178;28;20481;-38
2021/04/04 08:02:19;;;;;;;11.17;6.30;;;7.50;99.90;;;;;;5055345;28;20932;-37
2021/04/04 08:04:54;;;;;;;9.60;5.03;;;7.50;99.90;;;;;;5058266;28;20447;-38
2021/04/04 08:07:42;;;;;;;12.53;5.57;;;7.50;99.90;;;;;;5056548;28;20430;-38
2021/04/04 08:10:09;;;;;;;8.67;5.67;;;7.30;99.90;;;;;;5057231;28;21231;-37
2021/04/04 08:12:49;;;;;;;16.70;6.17;;;7.30;99.90;;;;;;5054205;28;20945;-38
2021/04/04 08:15:44;;;;;;;9.13;6.10;;;7.50;99.90;;;;;;5054980;28;20452;-38
2021/04/04 08:18:10;;;;;;;15.00;8.73;;;7.50;99.90;;;;;;5052016;28;20443;-38
2021/04/04 08:20:52;;;;;;;15.37;9.10;;;7.40;99.90;;;;;;5052728;28;20452;-38
2021/04/04 08:23:24;;;;;;;18.03;10.00;;;7.50;99.90;;;;;;5056720;28;20503;-38
2021/04/04 08:25:56;;;;;;;16.67;10.80;;;7.70;99.90;;;;;;5056304;28;20446;-38
2021/04/04 08:28:31;;;;;;;15.90;11.10;;;7.50;99.90;;;;;;5053839;28;20459;-38
2021/04/04 08:31:18;;;;;;;17.40;11.70;;;7.80;99.90;;;;;;5056203;28;20407;-38
2021/04/04 08:33:51;;;;;;;19.90;11.10;;;7.50;99.90;;;;;;5058562;28;20841;-37
2021/04/04 08:36:24;;;;;;;12.73;10.93;;;7.50;99.90;;;;;;5052013;28;20466;-38
2021/04/04 08:38:51;;;;;;;15.17;10.53;;;7.40;99.90;;;;;;5061432;28;20426;-38
2021/04/04 08:41:19;;;;;;;11.57;7.97;;;7.50;99.90;;;;;;5044156;28;20452;-38
2021/04/04 08:43:53;;;;;;;9.23;7.30;;;7.50;99.90;;;;;;5045657;28;20708;-38
2021/04/04 08:46:28;;;;;;;7.27;5.83;;;7.50;99.90;;;;;;5054923;28;20917;-38
2021/04/04 08:48:57;;;;;;;13.10;5.57;;;7.60;99.90;;;;;;5045091;28;20427;-37
2021/04/04 08:51:26;;;;;;;7.80;6.47;;;7.70;99.90;;;;;;5044987;28;20463;-38
2021/04/04 08:53:54;;;;;;;6.83;6.13;;;7.70;99.90;;;;;;5054080;28;20435;-37
2021/04/04 08:56:21;;;;;;;9.77;6.73;;;7.60;99.90;;;;;;5052708;28;20428;-37
2021/04/04 08:58:50;;;;;;;9.10;6.23;;;7.80;99.90;;;;;;5045324;28;20424;-37
2021/04/04 09:01:29;;;;;;;9.40;7.10;;;7.70;99.90;;;;;;5050832;28;20497;-37
2021/04/04 09:03:59;;;;;;;12.90;7.33;;;7.70;99.90;;;;;;5045432;28;20412;-37
2021/04/04 09:06:33;;;;;;;6.70;5.53;;;7.70;99.90;;;;;;5044603;28;20440;-38
2021/04/04 09:08:59;;;;;;;10.23;6.47;;;7.90;99.90;;;;;;5050143;28;20882;-37
2021/04/04 09:11:26;;;;;;;8.00;6.20;;;7.90;99.90;;;;;;5061330;28;20451;-38
2021/04/04 09:13:58;;;;;;;9.97;6.00;;;7.60;99.90;;;;;;5045024;28;20194;-37
2021/04/04 09:16:24;;;;;;;9.73;4.70;;;7.70;99.90;;;;;;5044061;28;20426;-38
2021/04/04 09:18:53;;;;;;;7.67;4.07;;;7.80;99.90;;;;;;5044896;28;20773;-38
2021/04/04 09:21:20;;;;;;;8.33;5.23;;;7.80;99.90;;;;;;5044694;28;20213;-37
2021/04/04 09:23:49;;;;;;;4.87;4.37;;;7.80;99.90;;;;;;5051656;28;20807;-37
2021/04/04 09:26:21;;;;;;;9.47;5.67;;;7.80;99.90;;;;;;5055156;28;20942;-38
2021/04/04 09:28:49;;;;;;;9.73;5.60;;;7.70;99.90;;;;;;5045302;28;20435;-38
2021/04/04 09:31:28;;;;;;;10.23;6.67;;;7.80;99.90;;;;;;5053155;28;20412;-37
2021/04/04 09:34:07;;;;;;;8.60;6.10;;;7.70;99.90;;;;;;5044913;28;20439;-38
2021/04/04 09:36:46;;;;;;;6.53;4.73;;;7.70;99.90;;;;;;5052466;28;20415;-38
2021/04/04 09:39:17;;;;;;;8.40;4.97;;;8.00;99.90;;;;;;5058839;28;20416;-37
2021/04/04 09:41:45;;;;;;;10.13;6.43;;;7.90;99.90;;;;;;5059798;28;20902;-37
2021/04/04 09:44:11;;;;;;;12.03;6.30;;;7.80;99.90;;;;;;5046594;28;20431;-38
2021/04/04 09:46:54;;;;;;;10.93;5.90;;;8.00;99.90;;;;;;5048245;28;20416;-37
2021/04/04 09:49:45;;;;;;;8.97;5.80;;;8.10;99.90;;;;;;5052610;28;20169;-38
2021/04/04 09:52:19;;;;;;;11.47;6.37;;;7.90;99.90;;;;;;5054649;28;20428;-37
2021/04/04 09:54:58;;;;;;;15.33;11.53;;;8.00;99.90;;;;;;5055440;28;20529;-38
2021/04/04 09:57:24;;;;;;;16.40;12.47;;;8.00;99.90;;;;;;5050881;28;20459;-37
2021/04/04 09:59:50;;;;;;;18.47;12.10;;;7.90;99.90;;;;;;5044238;28;20503;-37
2021/04/04 10:02:32;;;;;;;19.67;12.50;;;8.10;99.90;;;;;;5055301;28;20852;-39
2021/04/04 10:04:58;;;;;;;10.83;7.30;;;8.10;99.90;;;;;;5044512;28;20186;-37
2021/04/04 10:07:29;;;;;;;14.17;6.80;;;7.80;99.90;;;;;;5047816;28;20774;-38
2021/04/04 10:09:56;;;;;;;12.67;7.17;;;7.70;99.90;;;;;;5050865;28;20417;-38
2021/04/04 10:12:22;;;;;;;10.07;7.73;;;7.90;99.90;;;;;;5053838;28;20424;-37
2021/04/04 10:15:06;;;;;;;8.07;5.67;;;7.70;99.90;;;;;;5043048;28;20805;-38
2021/04/04 10:17:33;;;;;;;9.00;7.53;;;7.80;99.90;;;;;;5050565;28;20198;-37
2021/04/04 10:20:03;;;;;;;9.40;7.20;;;7.90;99.90;;;;;;5044090;28;20408;-38
2021/04/04 10:22:49;;;;;;;9.73;6.70;;;7.90;99.90;;;;;;5043445;28;20534;-38
2021/04/04 10:25:15;;;;;;;8.83;7.80;;;8.10;99.90;;;;;;5057888;28;20784;-38
2021/04/04 10:27:41;;;;;;;11.57;9.27;;;7.90;99.90;;;;;;5058162;28;20812;-37
2021/04/04 10:30:14;;;;;;;12.90;8.37;;;8.00;99.90;;;;;;5043887;28;20926;-37
2021/04/04 10:32:44;;;;;;;11.63;9.17;;;8.00;99.90;;;;;;5045034;28;20378;-37
2021/04/04 10:35:11;;;;;;;14.40;9.80;;;7.90;99.90;;;;;;5044326;28;20929;-37
2021/04/04 10:37:39;;;;;;;10.47;7.80;;;8.00;99.90;;;;;;5043261;28;21345;-37
2021/04/04 10:40:10;;;;;;;12.30;7.53;;;7.80;99.90;;;;;;5057091;28;20424;-38
2021/04/04 10:42:37;;;;;;;10.73;8.70;;;7.90;99.90;;;;;;5053172;28;20411;-37
2021/04/04 10:45:20;;;;;;;13.63;9.60;;;7.90;99.90;;;;;;5053237;28;20443;-37
2021/04/04 10:47:46;;;;;;;13.10;9.30;;;7.90;99.90;;;;;;5055855;28;20422;-37
2021/04/04 10:50:17;;;;;;;14.77;10.00;;;8.00;99.90;;;;;;5054074;28;20425;-38
2021/04/04 10:52:44;;;;;;;16.47;10.60;;;8.10;99.90;;;;;;5052762;28;20378;-38
2021/04/04 10:55:12;;;;;;;10.97;9.00;;;8.00;99.90;;;;;;5055115;28;20977;-38
2021/04/04 10:57:39;;;;;;;11.67;8.80;;;8.10;99.90;;;;;;5063636;28;20423;-37
2021/04/04 11:00:09;;;;;;;13.03;7.87;;;8.00;99.90;;;;;;5051980;28;20455;-37
2021/04/04 11:02:37;;;;;;;8.07;7.20;;;8.20;99.90;;;;;;5048794;28;20428;-39
2021/04/04 11:05:04;;;;;;;8.77;6.50;;;8.00;99.90;;;;;;5054538;28;20436;-37
2021/04/04 11:07:30;;;;;;;6.70;6.00;;;8.20;99.90;;;;;;5057337;28;20935;-37
2021/04/04 11:09:55;;;;;;;8.97;6.30;;;8.40;99.90;;;;;;5060202;28;20436;-38
2021/04/04 11:12:24;;;;;;;9.97;7.93;;;8.40;99.90;;;;;;5057055;28;20488;-37
2021/04/04 11:14:53;;;;;;;15.87;10.60;;;8.00;99.90;;;;;;5051044;28;20210;-38
2021/04/04 11:17:21;;;;;;;16.57;12.07;;;8.20;99.90;;;;;;5047743;28;20430;-37
2021/04/04 11:19:49;;;;;;;19.90;13.03;;;8.50;99.90;;;;;;5047006;28;20432;-37
2021/04/04 11:22:19;;;;;;;22.90;14.90;;;8.50;99.90;;;;;;5046995;28;20424;-37
2021/04/04 11:24:59;;;;;;;19.63;13.27;;;8.30;99.90;;;;;;5055025;28;20432;-37
2021/04/04 11:27:44;;;;;;;23.50;13.13;;;8.20;99.90;;;;;;5049489;28;20424;-38
2021/04/04 11:30:35;;;;;;;16.37;9.73;;;8.50;99.90;;;;;;5046857;28;20435;-38
2021/04/04 11:33:16;;;;;;;14.40;9.03;;;8.50;99.90;;;;;;5056485;28;20424;-37
2021/04/04 11:36:04;;;;;;;12.87;8.43;;;8.50;99.90;;;;;;5047702;28;20468;-37
2021/04/04 11:38:34;;;;;;;11.53;9.43;;;8.70;99.90;;;;;;5047809;28;20432;-37
2021/04/04 11:41:21;;;;;;;15.73;10.60;;;8.60;99.90;;;;;;5052080;28;20411;-38
2021/04/04 11:43:50;;;;;;;18.10;12.13;;;8.50;99.90;;;;;;5053171;28;20420;-37
2021/04/04 11:47:13;;;;;;;15.73;11.30;;;8.70;99.90;;;;;;5063762;28;20427;-38
2021/04/04 11:49:47;;;;;;;23.70;15.40;;;8.50;99.90;;;;;;5053173;28;20791;-39
2021/04/04 11:52:16;;;;;;;23.00;14.50;;;8.80;99.90;;;;;;5043922;28;20812;-37
2021/04/04 11:54:45;;;;;;;18.33;12.33;;;8.70;99.90;;;;;;5041307;28;20474;-38
2021/04/04 11:57:37;;;;;;;19.13;11.17;;;8.80;99.90;;;;;;5059041;28;20932;-37
2021/04/04 12:00:14;;;;;;;15.37;10.93;;;9.00;99.90;;;;;;5045894;28;20423;-38
2021/04/04 12:02:47;;;;;;;14.40;9.97;;;8.80;99.90;;;;;;5047587;28;20498;-38
2021/04/04 12:05:17;;;;;;;15.47;10.70;;;8.80;99.90;;;;;;5046496;28;20448;-38
2021/04/04 12:07:51;;;;;;;14.73;8.50;;;8.80;99.90;;;;;;5050252;28;20450;-38
2021/04/04 12:10:20;;;;;;;11.73;8.10;;;8.80;99.90;;;;;;5051251;28;20484;-37
2021/04/04 12:12:46;;;;;;;19.27;10.83;;;8.80;99.90;;;;;;5055077;28;20427;-37
2021/04/04 12:15:13;;;;;;;19.67;12.57;;;8.90;99.90;;;;;;5046232;28;21127;-38
2021/04/04 12:17:52;;;;;;;19.10;12.40;;;8.70;99.90;;;;;;5052257;28;20553;-38
2021/04/04 12:20:23;;;;;;;23.20;15.17;;;9.00;99.90;;;;;;5054120;28;20422;-38
2021/04/04 12:22:49;;;;;;;29.03;14.43;;;8.90;99.90;;;;;;5057292;28;20427;-38
2021/04/04 12:25:20;;;;;;;19.23;12.70;;;9.00;99.90;;;;;;5059559;28;20439;-38
2021/04/04 12:27:49;;;;;;;17.13;11.83;;;8.80;99.90;;;;;;5055102;28;20190;-37
2021/04/04 12:30:38;;;;;;;16.30;11.30;;;8.90;99.90;;;;;;5044257;28;20515;-38
2021/04/04 12:33:14;;;;;;;15.57;10.07;;;9.00;99.90;;;;;;5051169;28;20432;-37
2021/04/04 12:35:45;;;;;;;16.50;10.77;;;8.90;99.90;;;;;;5045499;28;20459;-38
2021/04/04 12:38:43;;;;;;;15.60;10.10;;;8.80;99.90;;;;;;5045697;28;20961;-37
2021/04/04 12:41:08;;;;;;;19.00;11.93;;;8.90;99.90;;;;;;5051343;28;20455;-37
2021/04/04 12:43:38;;;;;;;20.20;13.03;;;9.00;99.90;;;;;;5062430;28;20466;-37
2021/04/04 12:46:09;;;;;;;21.77;13.90;;;9.00;99.90;;;;;;5044584;28;20444;-37
2021/04/04 12:48:39;;;;;;;23.67;14.70;;;9.20;99.90;;;;;;5052618;28;20462;-38
2021/04/04 12:51:05;;;;;;;25.40;15.13;;;9.00;99.80;;;;;;5051796;28;20424;-38
2021/04/04 12:53:40;;;;;;;23.87;15.70;;;9.00;99.90;;;;;;5057159;28;20573;-37
2021/04/04 12:56:05;;;;;;;25.83;17.63;;;9.00;99.90;;;;;;5059006;28;20212;-37
2021/04/04 12:58:36;;;;;;;28.40;17.73;;;9.00;99.90;;;;;;5054412;28;20507;-39
2021/04/04 13:01:03;;;;;;;27.33;17.20;;;8.90;99.90;;;;;;5052391;28;20186;-37
2021/04/04 13:03:36;;;;;;;31.70;17.97;;;8.90;99.90;;;;;;5056601;28;20485;-37
2021/04/04 13:06:03;;;;;;;29.07;19.03;;;8.80;99.90;;;;;;5051369;28;20496;-36
2021/04/04 13:08:32;;;;;;;38.07;22.77;;;8.70;99.90;;;;;;5055054;28;20427;-39
2021/04/04 13:11:07;;;;;;;32.50;21.30;;;8.70;99.90;;;;;;5057450;28;20432;-37
2021/04/04 13:13:35;;;;;;;32.60;20.80;;;8.70;99.90;;;;;;5052076;28;20497;-37
2021/04/04 13:16:03;;;;;;;33.10;20.10;;;8.90;99.90;;;;;;5060109;28;20466;-37